TimePST,TemperatureF,Dew PointF,Humidity,Sea Level PressureIn,VisibilityMPH,Wind Direction,Wind SpeedMPH,Gust SpeedMPH,PrecipitationIn,Events,Conditions,WindDirDegrees,DateUTC
12:52 AM,41.0,23.0,49,30.04,-9999.0,SSW,5.8,-,N/A,,Unknown,200,2012-11-19 08:52:00
1:52 AM,37.9,26.1,62,30.05,-9999.0,East,5.8,-,N/A,,Unknown,100,2012-11-19 09:52:00
2:52 AM,34.0,25.0,70,30.07,-9999.0,Calm,Calm,-,N/A,,Unknown,0,2012-11-19 10:52:00
3:52 AM,39.9,26.1,58,30.06,-9999.0,South,6.9,-,N/A,,Unknown,190,2012-11-19 11:52:00
4:52 AM,43.0,28.0,56,30.06,-9999.0,SSE,20.7,-,N/A,,Unknown,160,2012-11-19 12:52:00
5:52 AM,42.1,27.0,55,30.07,-9999.0,SSE,17.3,-,N/A,,Unknown,160,2012-11-19 13:52:00
6:52 AM,39.9,28.0,63,30.10,-9999.0,SSE,12.7,-,N/A,,Unknown,160,2012-11-19 14:52:00
7:52 AM,43.0,27.0,53,30.10,-9999.0,SSE,6.9,-,N/A,,Unknown,160,2012-11-19 15:52:00
8:52 AM,46.0,28.0,50,30.11,-9999.0,SSW,9.2,-,N/A,,Unknown,200,2012-11-19 16:52:00
9:52 AM,50.0,28.0,43,30.10,-9999.0,South,13.8,-,N/A,,Unknown,180,2012-11-19 17:52:00
10:52 AM,50.0,28.9,44,30.10,-9999.0,South,13.8,-,N/A,,Unknown,180,2012-11-19 18:52:00
11:52 AM,51.1,30.9,46,30.06,-9999.0,SSE,19.6,29.9,N/A,,Unknown,150,2012-11-19 19:52:00
12:52 PM,53.1,30.0,41,30.03,-9999.0,SSW,16.1,21.9,N/A,,Unknown,200,2012-11-19 20:52:00
1:52 PM,52.0,30.9,45,30.03,-9999.0,South,19.6,26.5,N/A,,Unknown,170,2012-11-19 21:52:00
2:52 PM,52.0,30.9,45,30.02,-9999.0,South,21.9,28.8,N/A,,Unknown,170,2012-11-19 22:52:00
3:52 PM,53.1,30.9,43,30.00,-9999.0,SSE,26.5,35.7,N/A,,Unknown,150,2012-11-19 23:52:00
4:52 PM,52.0,30.9,45,29.99,-9999.0,South,18.4,26.5,N/A,,Unknown,180,2012-11-20 00:52:00
5:52 PM,52.0,30.0,43,29.99,-9999.0,South,17.3,26.5,N/A,,Unknown,170,2012-11-20 01:52:00
6:52 PM,51.1,30.9,46,30.00,-9999.0,SSE,10.4,20.7,N/A,,Unknown,160,2012-11-20 02:52:00
7:52 PM,50.0,30.9,48,30.00,-9999.0,SSE,17.3,-,N/A,,Unknown,150,2012-11-20 03:52:00
8:52 PM,48.9,30.0,48,29.99,-9999.0,South,11.5,-,N/A,,Unknown,170,2012-11-20 04:52:00
9:52 PM,48.9,30.0,48,29.98,-9999.0,SSE,17.3,-,N/A,,Unknown,160,2012-11-20 05:52:00
10:52 PM,48.0,30.9,52,29.97,-9999.0,Calm,Calm,-,N/A,,Unknown,0,2012-11-20 06:52:00
11:52 PM,53.1,30.9,43,29.94,-9999.0,SSE,16.1,-,N/A,,Unknown,160,2012-11-20 07:52:00